createdAt,value
2022-09-20T00:04:42.746Z,12.07
2022-09-20T00:09:44.364Z,12.18
2022-09-20T00:14:45.907Z,12.03
2022-09-20T00:19:47.436Z,12.14
2022-09-20T00:24:49.231Z,11.91
2022-09-20T00:29:50.938Z,11.97
2022-09-20T00:35:11.109Z,11.95
2022-09-20T00:40:15.981Z,11.93
2022-09-20T00:45:23.899Z,12.10
2022-09-20T00:50:44.647Z,11.78
2022-09-20T00:55:56.329Z,11.91
2022-09-20T01:00:58.197Z,11.95
2022-09-20T01:06:03.244Z,11.82
2022-09-20T01:11:05.047Z,12.01
2022-09-20T01:16:07.544Z,12.05
2022-09-20T01:21:09.560Z,11.90
2022-09-20T01:26:29.228Z,11.84
2022-09-20T01:31:34.226Z,11.84
2022-09-20T01:37:05.316Z,11.96
2022-09-20T01:42:10.196Z,11.87
2022-09-20T01:47:19.365Z,11.87
2022-09-20T01:52:58.704Z,12.01
2022-09-20T01:58:29.419Z,11.89
2022-09-20T02:04:18.522Z,11.98
2022-09-20T02:09:57.047Z,11.86
2022-09-20T02:15:14.092Z,11.76
2022-09-20T02:20:34.914Z,11.96
2022-09-20T02:25:49.909Z,11.86
2022-09-20T02:31:21.715Z,12.03
2022-09-20T02:36:39.211Z,11.69
2022-09-20T02:42:04.560Z,11.82
2022-09-20T02:47:12.462Z,11.80
2022-09-20T02:52:49.918Z,11.55
2022-09-20T02:58:21.169Z,11.71
2022-09-20T03:03:44.487Z,11.79
2022-09-20T03:09:11.579Z,11.94
2022-09-20T03:14:18.893Z,11.59
2022-09-20T03:19:33.538Z,11.63
2022-09-20T03:24:54.532Z,11.79
2022-09-20T03:30:15.217Z,11.67
2022-09-20T03:35:37.883Z,11.83
2022-09-20T03:40:51.660Z,11.71
2022-09-20T03:46:08.298Z,11.75
2022-09-20T03:51:23.584Z,11.69
2022-09-20T03:56:44.728Z,11.50
2022-09-20T04:01:52.512Z,11.44
2022-09-20T04:07:05.968Z,11.46
2022-09-20T04:12:26.918Z,11.54
2022-09-20T04:17:42.906Z,11.66
2022-09-20T04:22:44.741Z,11.53
2022-09-20T04:27:50.134Z,11.53
2022-09-20T04:33:03.393Z,11.65
2022-09-20T04:38:08.960Z,11.74
2022-09-20T04:43:53.735Z,11.54
2022-09-20T04:49:17.273Z,11.78
2022-09-20T04:54:25.135Z,11.62
2022-09-20T04:59:29.779Z,11.62
2022-09-20T05:04:49.800Z,11.59
2022-09-20T05:10:14.586Z,11.72
2022-09-20T05:15:37.646Z,11.72
2022-09-20T05:21:08.576Z,11.77
2022-09-20T05:26:30.131Z,11.78
2022-09-20T05:31:40.891Z,11.77
2022-09-20T05:36:53.532Z,11.66
2022-09-20T05:42:19.861Z,11.74
2022-09-20T05:47:48.817Z,11.75
2022-09-20T05:52:53.154Z,11.70
2022-09-20T05:58:04.099Z,11.78
2022-09-20T06:03:24.323Z,11.89
2022-09-20T06:08:57.961Z,11.82
2022-09-20T06:14:03.821Z,11.89
2022-09-20T06:19:22.756Z,11.67
2022-09-20T06:24:47.418Z,11.88
2022-09-20T06:29:56.186Z,11.82
2022-09-20T06:35:00.504Z,11.94
2022-09-20T06:40:57.688Z,12.10
2022-09-20T06:45:59.333Z,12.26
2022-09-20T06:51:01.524Z,12.26
2022-09-20T06:56:03.275Z,12.38
2022-09-20T07:01:04.979Z,12.46
2022-09-20T07:06:06.582Z,12.46
2022-09-20T07:11:13.279Z,12.54
2022-09-20T07:16:15.124Z,12.44
2022-09-20T07:21:18.075Z,12.51
2022-09-20T07:26:28.365Z,12.39
2022-09-20T07:31:30.499Z,12.22
2022-09-20T07:36:32.110Z,12.27
2022-09-20T07:41:33.658Z,12.29
2022-09-20T07:46:36.087Z,12.32
2022-09-20T07:51:37.611Z,12.33
2022-09-20T07:56:39.462Z,12.52
2022-09-20T08:01:41.930Z,12.48
2022-09-20T08:06:44.779Z,12.32
2022-09-20T08:11:46.444Z,12.33
2022-09-20T08:16:48.749Z,12.49
2022-09-20T08:21:51.538Z,12.26
2022-09-20T08:26:53.178Z,12.21
2022-09-20T08:31:58.227Z,12.27
2022-09-20T08:36:59.810Z,12.70
2022-09-20T08:42:15.082Z,12.66
2022-09-20T08:47:23.171Z,12.56
2022-09-20T08:52:36.243Z,12.80
2022-09-20T08:57:38.542Z,12.85
2022-09-20T09:02:41.746Z,12.93
2022-09-20T09:07:43.258Z,13.04
2022-09-20T09:12:48.689Z,12.95
2022-09-20T09:17:50.538Z,13.24
2022-09-20T09:23:03.210Z,13.00
2022-09-20T09:28:07.401Z,12.87
2022-09-20T09:33:30.508Z,13.07
2022-09-20T09:38:37.634Z,12.95
2022-09-20T09:43:40.575Z,13.17
2022-09-20T09:48:42.158Z,13.17
2022-09-20T09:53:45.050Z,13.26
2022-09-20T09:59:23.244Z,13.24
2022-09-20T10:04:33.054Z,13.22
2022-09-20T10:09:57.642Z,13.40
2022-09-20T10:15:10.341Z,13.36
2022-09-20T10:20:51.290Z,13.42
2022-09-20T10:26:34.989Z,13.49
2022-09-20T10:32:15.306Z,13.61
2022-09-20T10:37:53.259Z,13.65
2022-09-20T10:43:15.623Z,13.77
2022-09-20T10:48:28.428Z,13.77
2022-09-20T10:53:32.787Z,13.71
2022-09-20T10:59:07.591Z,13.69
2022-09-20T11:04:21.293Z,13.86
2022-09-20T11:09:26.612Z,13.84
2022-09-20T11:14:34.339Z,13.78
2022-09-20T11:19:56.503Z,14.03
2022-09-20T11:25:21.677Z,14.04
2022-09-20T11:30:24.897Z,13.96
2022-09-20T11:35:39.661Z,14.17
2022-09-20T11:41:00.388Z,14.07
2022-09-20T11:46:05.780Z,14.18
2022-09-20T11:51:25.594Z,13.92
2022-09-20T11:56:29.083Z,14.02
2022-09-20T12:01:39.390Z,13.96
2022-09-20T12:06:42.555Z,13.90
2022-09-20T12:11:44.082Z,14.02
2022-09-20T12:16:47.841Z,14.16
2022-09-20T12:21:58.414Z,14.37
2022-09-20T12:27:19.886Z,14.39
2022-09-20T12:32:41.105Z,14.37
2022-09-20T12:37:42.670Z,14.36
2022-09-20T12:42:44.229Z,14.39
2022-09-20T12:47:54.740Z,14.28
2022-09-20T12:52:57.617Z,14.24
2022-09-20T12:58:13.665Z,14.25
2022-09-20T13:03:15.104Z,14.26
2022-09-20T13:08:25.284Z,14.33
2022-09-20T13:13:30.779Z,14.52
2022-09-20T13:18:34.630Z,14.65
2022-09-20T13:23:45.573Z,14.71
2022-09-20T13:28:49.727Z,14.72
2022-09-20T13:33:51.417Z,14.73
2022-09-20T13:38:55.187Z,14.74
2022-09-20T13:43:57.317Z,14.79
2022-09-20T13:49:11.073Z,14.91
2022-09-20T13:54:33.153Z,14.84
2022-09-20T13:59:42.631Z,14.78
2022-09-20T14:04:44.182Z,13.81
2022-09-20T14:09:46.316Z,13.61
2022-09-20T14:14:48.023Z,13.66
2022-09-20T14:19:51.785Z,13.77
2022-09-20T14:24:59.477Z,13.37
2022-09-20T14:30:01.209Z,13.21
2022-09-20T14:35:18.164Z,13.41
2022-09-20T14:40:28.448Z,13.56
2022-09-20T14:45:35.239Z,13.60
2022-09-20T14:50:40.558Z,13.52
2022-09-20T14:56:00.074Z,13.33
2022-09-20T15:01:07.011Z,13.14
2022-09-20T15:06:12.494Z,13.11
2022-09-20T15:11:15.643Z,13.02
2022-09-20T15:16:20.119Z,12.96
2022-09-20T15:21:21.893Z,12.94
2022-09-20T15:26:23.452Z,13.08
2022-09-20T15:31:25.038Z,13.05
2022-09-20T15:36:31.781Z,12.95
2022-09-20T15:41:34.023Z,13.02
2022-09-20T15:46:35.608Z,13.11
2022-09-20T15:51:38.967Z,13.01
2022-09-20T15:56:41.288Z,13.00
2022-09-20T16:01:44.595Z,12.99
2022-09-20T16:06:48.017Z,13.00
2022-09-20T16:11:49.598Z,12.93
2022-09-20T16:16:56.589Z,12.74
2022-09-20T16:21:59.411Z,12.96
2022-09-20T16:27:02.735Z,13.06
2022-09-20T16:32:05.356Z,12.95
2022-09-20T16:37:11.942Z,12.93
2022-09-20T16:42:13.614Z,12.73
2022-09-20T16:47:21.876Z,12.82
2022-09-20T16:52:26.469Z,12.78
2022-09-20T16:57:28.837Z,12.80
2022-09-20T17:02:30.411Z,12.83
2022-09-20T17:07:32.089Z,12.79
2022-09-20T17:12:34.483Z,12.89
2022-09-20T17:17:36.024Z,12.42
2022-09-20T17:22:37.566Z,12.39
2022-09-20T17:27:39.223Z,12.49
2022-09-20T17:32:48.114Z,12.36
2022-09-20T17:37:49.799Z,12.65
2022-09-20T17:42:51.785Z,12.38
2022-09-20T17:47:56.713Z,12.24
2022-09-20T17:52:58.256Z,12.34
2022-09-20T17:58:00.146Z,12.27
2022-09-20T18:03:04.921Z,12.31
2022-09-20T18:08:06.878Z,12.17
2022-09-20T18:13:08.408Z,12.29
2022-09-20T18:18:09.931Z,12.29
2022-09-20T18:23:11.704Z,12.25
2022-09-20T18:28:14.083Z,12.21
2022-09-20T18:33:18.636Z,12.24
2022-09-20T18:38:20.707Z,12.16
2022-09-20T18:43:22.216Z,12.30
2022-09-20T18:48:25.838Z,12.10
2022-09-20T18:53:28.933Z,12.09
2022-09-20T18:58:30.713Z,11.99
2022-09-20T19:03:53.984Z,11.89
2022-09-20T19:09:04.899Z,11.65
2022-09-20T19:14:17.399Z,12.09
2022-09-20T19:19:42.177Z,11.83
2022-09-20T19:24:56.808Z,11.61
2022-09-20T19:29:58.555Z,11.64
2022-09-20T19:35:03.874Z,11.77
2022-09-20T19:40:24.166Z,11.69
2022-09-20T19:45:48.061Z,11.76
2022-09-20T19:50:52.635Z,11.77
2022-09-20T19:56:01.549Z,11.83
2022-09-20T20:01:03.349Z,11.67
2022-09-20T20:06:21.986Z,11.76
2022-09-20T20:11:54.106Z,11.95
2022-09-20T20:17:17.396Z,11.90
2022-09-20T20:22:40.943Z,12.02
2022-09-20T20:27:42.483Z,11.91
2022-09-20T20:32:44.114Z,11.76
2022-09-20T20:37:47.431Z,11.81
2022-09-20T20:42:49.385Z,11.84
2022-09-20T20:47:56.686Z,11.84
2022-09-20T20:52:58.256Z,11.89
2022-09-20T20:57:59.801Z,11.95
2022-09-20T21:03:01.752Z,11.71
2022-09-20T21:08:03.357Z,11.75
2022-09-20T21:13:04.909Z,11.77
2022-09-20T21:18:06.431Z,11.90
2022-09-20T21:23:07.942Z,11.81
2022-09-20T21:28:09.445Z,11.73
2022-09-20T21:33:11.491Z,11.76
2022-09-20T21:38:13.027Z,11.52
2022-09-20T21:43:15.136Z,11.75
2022-09-20T21:48:17.872Z,11.86
2022-09-20T21:53:19.614Z,11.88
2022-09-20T21:58:21.129Z,11.71
2022-09-20T22:03:22.654Z,11.75
2022-09-20T22:08:24.237Z,11.89
2022-09-20T22:13:25.887Z,11.74
2022-09-20T22:18:27.423Z,11.69
2022-09-20T22:23:30.088Z,11.63
2022-09-20T22:28:31.730Z,11.55
2022-09-20T22:33:33.569Z,11.70
2022-09-20T22:38:35.091Z,11.66
2022-09-20T22:43:37.314Z,11.71
2022-09-20T22:48:39.679Z,11.55
2022-09-20T22:53:41.605Z,11.63
2022-09-20T22:58:46.180Z,11.76
2022-09-20T23:03:52.916Z,11.68
2022-09-20T23:08:56.779Z,11.74
2022-09-20T23:14:00.571Z,11.73
2022-09-20T23:19:03.922Z,11.57
2022-09-20T23:24:08.089Z,11.65
2022-09-20T23:29:12.563Z,11.65
2022-09-20T23:34:15.271Z,11.69
2022-09-20T23:39:16.866Z,11.62
2022-09-20T23:44:18.849Z,11.72
2022-09-20T23:49:20.498Z,11.67
2022-09-20T23:54:22.111Z,11.52
2022-09-20T23:59:23.777Z,11.58
